Time;durP1;ratioP1;P1;durP2;ratioP2;P2;SDS_P1;SDS_P2;PMS_P1;PMS_P2;Temp;Humidity;BMP_temperature;BMP_pressure;BME280_temperature;BME280_humidity;BME280_pressure;Samples;Min_cycle;Max_cycle;Signal;HPM_P1;HPM_P2
2022/01/18 00:01:51;;;;;;;15.37;12.80;;;;;;;;;;5071696;28;20813;-76
2022/01/18 00:04:18;;;;;;;18.43;12.57;;;;;;;;;;5055118;28;20433;-77
2022/01/18 00:06:48;;;;;;;17.07;13.97;;;;;;;;;;5051877;28;20454;-76
2022/01/18 00:09:18;;;;;;;17.67;12.87;;;;;;;;;;5051318;28;20454;-76
2022/01/18 00:11:50;;;;;;;15.93;11.77;;;;;;;;;;5049862;28;20830;-76
2022/01/18 00:14:25;;;;;;;14.87;12.57;;;;;;;;;;5050002;28;21096;-77
2022/01/18 00:17:04;;;;;;;17.30;12.57;;;;;;;;;;5054627;28;20491;-76
2022/01/18 00:19:33;;;;;;;17.33;13.10;;;;;;;;;;5070649;28;20441;-76
2022/01/18 00:22:11;;;;;;;17.60;13.53;;;;;;;;;;5062536;28;20514;-77
2022/01/18 00:24:40;;;;;;;12.67;11.37;;;;;;;;;;5062099;28;20450;-76
2022/01/18 00:27:09;;;;;;;14.87;12.33;;;;;;;;;;5052218;28;20996;-77
2022/01/18 00:29:39;;;;;;;15.13;12.20;;;;;;;;;;5052029;28;20457;-78
2022/01/18 00:32:14;;;;;;;16.70;12.97;;;;;;;;;;5052282;28;20465;-77
2022/01/18 00:34:44;;;;;;;13.47;11.37;;;;;;;;;;5051829;28;20484;-76
2022/01/18 00:37:33;;;;;;;15.20;12.53;;;;;;;;;;5051983;28;20470;-76
2022/01/18 00:40:00;;;;;;;16.83;12.60;;;;;;;;;;5051894;28;20454;-77
2022/01/18 00:42:27;;;;;;;14.90;13.00;;;;;;;;;;5052050;28;20456;-76
2022/01/18 00:44:54;;;;;;;16.80;12.50;;;;;;;;;;5051156;28;20472;-77
2022/01/18 00:47:23;;;;;;;15.53;12.10;;;;;;;;;;5052264;28;20466;-76
2022/01/18 00:49:58;;;;;;;15.47;12.87;;;;;;;;;;5052087;28;20795;-76
2022/01/18 00:52:26;;;;;;;16.47;13.07;;;;;;;;;;5052187;28;20446;-77
2022/01/18 00:54:53;;;;;;;16.07;12.90;;;;;;;;;;5051932;28;20477;-78
2022/01/18 00:57:20;;;;;;;15.90;13.50;;;;;;;;;;5051998;28;20468;-77
2022/01/18 00:59:47;;;;;;;14.77;11.90;;;;;;;;;;5051947;28;20471;-77
2022/01/18 01:02:14;;;;;;;15.10;12.07;;;;;;;;;;5051886;28;20489;-76
2022/01/18 01:04:47;;;;;;;15.87;12.70;;;;;;;;;;5071008;28;20433;-76
2022/01/18 01:07:15;;;;;;;15.90;13.17;;;;;;;;;;5071633;28;20610;-77
2022/01/18 01:09:42;;;;;;;15.43;12.87;;;;;;;;;;5064933;28;20487;-76
2022/01/18 01:12:11;;;;;;;16.67;12.83;;;;;;;;;;5060678;28;20456;-76
2022/01/18 01:14:38;;;;;;;14.73;12.70;;;;;;;;;;5071376;28;20507;-76
2022/01/18 01:17:21;;;;;;;16.80;12.57;;;;;;;;;;5071438;28;20469;-78
2022/01/18 01:42:07;;;;;;;17.67;13.00;;;;;;;;;;5071151;28;20528;-77
2022/01/18 01:44:42;;;;;;;17.40;13.80;;;;;;;;;;5072059;28;20906;-77
2022/01/18 01:47:10;;;;;;;19.50;14.27;;;;;;;;;;5072633;28;20563;-77
2022/01/18 01:49:37;;;;;;;19.73;15.27;;;;;;;;;;5071437;28;20441;-77
2022/01/18 01:52:06;;;;;;;18.10;15.17;;;;;;;;;;5071125;28;20449;-76
2022/01/18 01:54:33;;;;;;;18.93;14.23;;;;;;;;;;5070748;28;20975;-76
2022/01/18 01:57:00;;;;;;;18.47;14.87;;;;;;;;;;5074374;28;20514;-76
2022/01/18 01:59:28;;;;;;;17.47;13.27;;;;;;;;;;5074408;28;20495;-77
2022/01/18 02:01:55;;;;;;;17.33;14.90;;;;;;;;;;5074682;28;20496;-77
2022/01/18 02:04:22;;;;;;;15.90;12.37;;;;;;;;;;5074395;28;20483;-77
2022/01/18 02:06:49;;;;;;;21.13;14.60;;;;;;;;;;5074411;28;20440;-77
2022/01/18 02:09:18;;;;;;;18.20;14.67;;;;;;;;;;5074489;28;20452;-77
2022/01/18 02:11:46;;;;;;;20.00;16.87;;;;;;;;;;5074576;28;20457;-78
2022/01/18 02:14:18;;;;;;;19.47;15.73;;;;;;;;;;5074144;28;20515;-76
2022/01/18 02:22:16;;;;;;;24.30;16.90;;;;;;;;;;5072441;28;20416;-77
2022/01/18 02:24:43;;;;;;;19.80;15.00;;;;;;;;;;5067706;28;20999;-76
2022/01/18 02:27:10;;;;;;;21.07;16.50;;;;;;;;;;5073863;28;20503;-78
2022/01/18 02:29:38;;;;;;;18.30;15.30;;;;;;;;;;5063182;28;20440;-75
2022/01/18 02:32:05;;;;;;;19.97;16.17;;;;;;;;;;5074021;28;20445;-77
2022/01/18 02:34:32;;;;;;;21.70;16.73;;;;;;;;;;5073312;28;20526;-77
2022/01/18 02:36:59;;;;;;;20.40;16.43;;;;;;;;;;5066478;28;20442;-77
2022/01/18 02:39:28;;;;;;;20.27;16.60;;;;;;;;;;5069486;28;20438;-76
2022/01/18 02:41:57;;;;;;;19.23;16.00;;;;;;;;;;5073768;28;20502;-76
2022/01/18 02:44:24;;;;;;;21.07;17.40;;;;;;;;;;5073331;28;20451;-77
2022/01/18 02:46:52;;;;;;;21.40;16.53;;;;;;;;;;5073190;28;21008;-76
2022/01/18 02:49:19;;;;;;;18.43;16.00;;;;;;;;;;5073245;28;20445;-76
2022/01/18 02:51:46;;;;;;;28.80;16.60;;;;;;;;;;5073414;28;20444;-75
2022/01/18 02:54:14;;;;;;;22.20;17.80;;;;;;;;;;5072869;28;20533;-76
2022/01/18 02:56:46;;;;;;;20.67;15.63;;;;;;;;;;5073082;28;20940;-77
2022/01/18 02:59:19;;;;;;;21.90;14.80;;;;;;;;;;5073558;28;20430;-78
2022/01/18 03:04:32;;;;;;;20.90;16.80;;;;;;;;;;5073227;28;20552;-77
2022/01/18 03:06:59;;;;;;;21.50;15.60;;;;;;;;;;5081567;28;20441;-77
2022/01/18 03:09:26;;;;;;;19.30;15.80;;;;;;;;;;5081428;28;20503;-77
2022/01/18 03:11:55;;;;;;;21.53;15.90;;;;;;;;;;5080833;28;20499;-77
2022/01/18 03:14:22;;;;;;;19.53;15.50;;;;;;;;;;5082472;28;20503;-78
2022/01/18 03:16:49;;;;;;;20.30;16.77;;;;;;;;;;5075544;28;20510;-76
2022/01/18 03:19:17;;;;;;;21.87;15.67;;;;;;;;;;5073166;28;20429;-78
2022/01/18 03:21:44;;;;;;;24.13;17.80;;;;;;;;;;5072914;28;20454;-77
2022/01/18 03:24:32;;;;;;;24.47;17.27;;;;;;;;;;5072491;28;20440;-77
2022/01/18 03:29:45;;;;;;;21.97;17.30;;;;;;;;;;5072850;28;20420;-77
2022/01/18 03:32:12;;;;;;;21.10;16.47;;;;;;;;;;5072790;28;20445;-78
2022/01/18 03:34:39;;;;;;;22.30;16.60;;;;;;;;;;5072312;28;20469;-78
2022/01/18 03:37:06;;;;;;;21.03;16.50;;;;;;;;;;5072382;28;20515;-78
2022/01/18 03:39:33;;;;;;;22.63;17.43;;;;;;;;;;5072401;28;20503;-77
2022/01/18 03:42:32;;;;;;;20.47;17.10;;;;;;;;;;5072428;28;20502;-79
2022/01/18 03:45:01;;;;;;;20.43;16.00;;;;;;;;;;5072151;28;20439;-76
2022/01/18 03:47:28;;;;;;;20.10;16.70;;;;;;;;;;5072113;28;20988;-79
2022/01/18 03:49:55;;;;;;;22.43;17.00;;;;;;;;;;5072202;28;20940;-76
2022/01/18 03:52:22;;;;;;;22.07;16.67;;;;;;;;;;5072418;28;20437;-78
2022/01/18 03:54:50;;;;;;;21.13;17.33;;;;;;;;;;5072360;28;20476;-77
2022/01/18 03:57:19;;;;;;;21.00;16.63;;;;;;;;;;5072216;28;21010;-78
2022/01/18 03:59:46;;;;;;;22.17;17.60;;;;;;;;;;5075955;28;20464;-77
2022/01/18 04:02:13;;;;;;;19.60;16.00;;;;;;;;;;5078932;28;20441;-77
2022/01/18 04:04:41;;;;;;;22.07;18.50;;;;;;;;;;5059580;28;20445;-77
2022/01/18 04:07:08;;;;;;;26.70;17.43;;;;;;;;;;5053242;28;20541;-77
2022/01/18 04:09:35;;;;;;;23.60;17.93;;;;;;;;;;5052224;28;20450;-78
2022/01/18 04:12:03;;;;;;;23.77;17.23;;;;;;;;;;5052234;28;20449;-76
2022/01/18 04:14:31;;;;;;;19.27;16.23;;;;;;;;;;5051772;28;20486;-78
2022/01/18 04:17:05;;;;;;;25.57;17.80;;;;;;;;;;5051944;28;20515;-77
2022/01/18 04:27:56;;;;;;;19.93;15.83;;;;;;;;;;5052512;28;20431;-77
2022/01/18 04:30:25;;;;;;;21.30;16.67;;;;;;;;;;5052401;28;20457;-77
2022/01/18 04:32:52;;;;;;;23.23;17.80;;;;;;;;;;5051904;28;20477;-77
2022/01/18 04:35:19;;;;;;;21.13;17.53;;;;;;;;;;5051956;28;20470;-77
2022/01/18 04:37:46;;;;;;;23.77;17.63;;;;;;;;;;5051605;28;20519;-77
2022/01/18 04:40:17;;;;;;;22.70;17.73;;;;;;;;;;5052626;28;20438;-78
2022/01/18 04:43:02;;;;;;;24.47;18.10;;;;;;;;;;5051963;28;20837;-78
2022/01/18 04:48:27;;;;;;;25.20;18.80;;;;;;;;;;5051640;28;20468;-76
2022/01/18 04:50:55;;;;;;;27.67;19.20;;;;;;;;;;5052052;28;20488;-76
2022/01/18 04:53:22;;;;;;;26.23;18.80;;;;;;;;;;5051517;28;20449;-77
2022/01/18 04:55:54;;;;;;;26.30;20.40;;;;;;;;;;5051582;28;20520;-76
2022/01/18 04:58:21;;;;;;;23.73;18.97;;;;;;;;;;5051611;28;20907;-76
2022/01/18 05:00:50;;;;;;;26.00;18.43;;;;;;;;;;5051623;28;20434;-76
2022/01/18 05:03:17;;;;;;;24.50;17.50;;;;;;;;;;5059091;28;20437;-76
2022/01/18 05:05:44;;;;;;;24.00;18.60;;;;;;;;;;5072323;28;20495;-77
2022/01/18 05:08:13;;;;;;;26.03;18.23;;;;;;;;;;5071838;28;20460;-77
2022/01/18 05:10:41;;;;;;;28.27;19.37;;;;;;;;;;5072127;28;20506;-77
2022/01/18 05:13:18;;;;;;;26.77;18.37;;;;;;;;;;5077830;28;20437;-76
2022/01/18 05:15:50;;;;;;;25.77;17.63;;;;;;;;;;5093958;28;20540;-77
2022/01/18 05:21:18;;;;;;;27.90;19.40;;;;;;;;;;5093816;28;20444;-76
2022/01/18 05:23:45;;;;;;;26.63;19.53;;;;;;;;;;5093173;28;20429;-77
2022/01/18 05:26:12;;;;;;;25.80;19.67;;;;;;;;;;5092496;28;20428;-77
2022/01/18 05:28:39;;;;;;;28.10;18.43;;;;;;;;;;5071875;28;20461;-77
2022/01/18 05:31:06;;;;;;;29.70;21.07;;;;;;;;;;5073870;28;20475;-78
2022/01/18 05:33:35;;;;;;;33.87;20.93;;;;;;;;;;5087999;28;20456;-77
2022/01/18 05:36:02;;;;;;;31.00;20.57;;;;;;;;;;5097902;28;20503;-76
2022/01/18 05:38:31;;;;;;;29.60;21.80;;;;;;;;;;5099340;28;20461;-78
2022/01/18 05:40:58;;;;;;;30.37;21.20;;;;;;;;;;5096346;28;20444;-76
2022/01/18 05:43:25;;;;;;;28.50;20.87;;;;;;;;;;5095668;28;20449;-76
2022/01/18 05:45:52;;;;;;;25.67;19.07;;;;;;;;;;5095425;28;20456;-76
2022/01/18 05:48:19;;;;;;;29.83;19.83;;;;;;;;;;5096629;28;20457;-77
2022/01/18 05:50:48;;;;;;;35.10;19.90;;;;;;;;;;5096553;28;20428;-76
2022/01/18 05:53:15;;;;;;;29.80;20.20;;;;;;;;;;5094043;28;20467;-77
2022/01/18 05:55:42;;;;;;;29.90;22.27;;;;;;;;;;5096383;28;20472;-77
2022/01/18 05:58:09;;;;;;;32.73;21.50;;;;;;;;;;5095402;28;20465;-78
2022/01/18 06:00:38;;;;;;;32.63;20.30;;;;;;;;;;5096132;28;20650;-76
2022/01/18 06:03:13;;;;;;;29.87;21.77;;;;;;;;;;5079281;28;20733;-76
2022/01/18 06:08:26;;;;;;;34.70;21.40;;;;;;;;;;5054233;28;20720;-79
2022/01/18 06:10:53;;;;;;;26.80;19.87;;;;;;;;;;5054370;28;20460;-77
2022/01/18 06:13:20;;;;;;;28.43;19.40;;;;;;;;;;5053713;28;20442;-77
2022/01/18 06:15:47;;;;;;;28.87;20.43;;;;;;;;;;5054218;28;20524;-77
2022/01/18 06:18:16;;;;;;;28.83;20.00;;;;;;;;;;5054257;28;20819;-78
2022/01/18 06:20:44;;;;;;;28.57;20.13;;;;;;;;;;5053805;28;20864;-76
2022/01/18 06:23:13;;;;;;;28.73;20.50;;;;;;;;;;5053748;28;20465;-77
2022/01/18 06:25:42;;;;;;;33.77;21.13;;;;;;;;;;5054267;28;20817;-78
2022/01/18 06:28:09;;;;;;;48.30;35.13;;;;;;;;;;5053707;28;20470;-78
2022/01/18 06:30:36;;;;;;;60.40;40.50;;;;;;;;;;5054247;28;20815;-79
2022/01/18 06:33:03;;;;;;;30.20;20.90;;;;;;;;;;5054765;28;20442;-79
2022/01/18 06:35:30;;;;;;;28.70;21.23;;;;;;;;;;5055907;28;20480;-78
2022/01/18 06:37:57;;;;;;;28.50;20.60;;;;;;;;;;5055360;28;20811;-78
2022/01/18 06:40:25;;;;;;;30.93;20.27;;;;;;;;;;5054714;28;20457;-77
2022/01/18 06:42:54;;;;;;;30.30;22.23;;;;;;;;;;5054320;28;20888;-77
2022/01/18 06:45:21;;;;;;;32.37;21.63;;;;;;;;;;5055385;28;20438;-77
2022/01/18 06:47:48;;;;;;;34.17;23.63;;;;;;;;;;5055701;28;20519;-79
2022/01/18 06:50:15;;;;;;;35.67;22.30;;;;;;;;;;5055578;28;20491;-78
2022/01/18 06:52:42;;;;;;;32.00;21.40;;;;;;;;;;5054403;28;20442;-77
2022/01/18 06:55:09;;;;;;;32.90;22.10;;;;;;;;;;5053793;28;20482;-78
2022/01/18 06:57:36;;;;;;;32.73;23.03;;;;;;;;;;5054283;28;20465;-77
2022/01/18 07:00:06;;;;;;;34.53;22.57;;;;;;;;;;5053963;28;20449;-78
2022/01/18 07:02:33;;;;;;;29.37;19.40;;;;;;;;;;5054972;28;20529;-77
2022/01/18 07:05:00;;;;;;;27.97;20.70;;;;;;;;;;5073772;28;20449;-78
2022/01/18 07:07:27;;;;;;;29.80;21.47;;;;;;;;;;5075152;28;20472;-77
2022/01/18 07:09:54;;;;;;;29.90;20.23;;;;;;;;;;5074395;28;20956;-79
2022/01/18 07:12:22;;;;;;;26.93;19.90;;;;;;;;;;5075166;28;20449;-78
2022/01/18 07:14:49;;;;;;;30.03;20.07;;;;;;;;;;5075018;28;20438;-77
2022/01/18 07:17:18;;;;;;;28.70;19.40;;;;;;;;;;5074875;28;21002;-79
2022/01/18 07:19:45;;;;;;;27.90;21.40;;;;;;;;;;5074239;28;20444;-77
2022/01/18 07:22:12;;;;;;;27.77;21.67;;;;;;;;;;5074055;28;20506;-77
2022/01/18 07:24:41;;;;;;;32.30;20.80;;;;;;;;;;5073246;28;20445;-77
2022/01/18 07:27:09;;;;;;;26.07;19.50;;;;;;;;;;5073704;28;20484;-77
2022/01/18 07:29:37;;;;;;;29.93;21.50;;;;;;;;;;5073971;28;20445;-78
2022/01/18 07:32:05;;;;;;;28.27;19.47;;;;;;;;;;5074480;28;20444;-77
2022/01/18 07:34:35;;;;;;;29.30;20.60;;;;;;;;;;5074074;28;20449;-77
2022/01/18 07:37:02;;;;;;;30.10;21.57;;;;;;;;;;5073833;28;20488;-76
2022/01/18 07:39:29;;;;;;;30.00;20.10;;;;;;;;;;5073692;28;20947;-77
2022/01/18 07:41:56;;;;;;;33.10;21.60;;;;;;;;;;5074119;28;20499;-77
2022/01/18 07:44:23;;;;;;;32.17;23.30;;;;;;;;;;5073771;28;20433;-78
2022/01/18 07:46:50;;;;;;;33.00;20.33;;;;;;;;;;5073398;28;20443;-78
2022/01/18 07:49:17;;;;;;;34.10;20.57;;;;;;;;;;5073596;28;20425;-78
2022/01/18 07:51:46;;;;;;;27.40;19.90;;;;;;;;;;5073296;28;20446;-78
2022/01/18 07:54:13;;;;;;;32.20;21.97;;;;;;;;;;5072592;28;20502;-78
2022/01/18 07:56:41;;;;;;;28.47;20.63;;;;;;;;;;5072619;28;20488;-77
2022/01/18 07:59:08;;;;;;;29.87;19.70;;;;;;;;;;5073207;28;20433;-78
2022/01/18 08:01:36;;;;;;;68.00;48.33;;;;;;;;;;5073865;28;20437;-77
2022/01/18 08:04:03;;;;;;;46.93;33.80;;;;;;;;;;5061961;28;20454;-78
2022/01/18 08:06:30;;;;;;;30.60;22.17;;;;;;;;;;5054931;28;20446;-78
2022/01/18 08:08:58;;;;;;;32.80;20.57;;;;;;;;;;5052995;28;20482;-78
2022/01/18 08:11:25;;;;;;;26.17;19.93;;;;;;;;;;5052765;28;20821;-77
2022/01/18 08:13:52;;;;;;;28.70;20.60;;;;;;;;;;5053215;28;20446;-79
2022/01/18 08:16:45;;;;;;;31.23;21.63;;;;;;;;;;5054848;28;20485;-77
2022/01/18 08:19:11;;;;;;;37.37;22.03;;;;;;;;;;5053702;28;20445;-79
2022/01/18 08:21:38;;;;;;;29.80;21.43;;;;;;;;;;5065045;28;20514;-78
2022/01/18 08:24:07;;;;;;;30.83;21.53;;;;;;;;;;5066197;28;20445;-78
2022/01/18 08:26:34;;;;;;;32.40;21.93;;;;;;;;;;5071225;28;20492;-78
2022/01/18 08:29:01;;;;;;;38.40;23.93;;;;;;;;;;5071881;28;20467;-79
2022/01/18 08:31:28;;;;;;;33.70;21.03;;;;;;;;;;5072460;28;20465;-78
2022/01/18 08:33:55;;;;;;;31.60;21.87;;;;;;;;;;5072912;28;20433;-79
2022/01/18 08:36:22;;;;;;;29.17;21.67;;;;;;;;;;5073527;28;20466;-79
2022/01/18 08:38:49;;;;;;;28.50;20.43;;;;;;;;;;5072625;28;20498;-77
2022/01/18 08:41:18;;;;;;;29.47;20.43;;;;;;;;;;5073730;28;20507;-77
2022/01/18 08:43:45;;;;;;;30.70;19.20;;;;;;;;;;5072920;28;20476;-77
2022/01/18 08:46:12;;;;;;;32.00;22.23;;;;;;;;;;5059583;28;20488;-77
2022/01/18 08:48:39;;;;;;;28.50;19.93;;;;;;;;;;5054103;28;20494;-76
2022/01/18 08:51:07;;;;;;;27.97;19.67;;;;;;;;;;5052966;28;20442;-77
2022/01/18 08:53:35;;;;;;;31.60;21.73;;;;;;;;;;5054510;28;20449;-78
2022/01/18 08:56:02;;;;;;;31.43;20.53;;;;;;;;;;5053891;28;20589;-78
2022/01/18 08:58:32;;;;;;;28.40;20.20;;;;;;;;;;5053990;28;20469;-78
2022/01/18 09:00:59;;;;;;;25.87;18.77;;;;;;;;;;5053388;28;20453;-78
2022/01/18 09:03:26;;;;;;;28.87;20.57;;;;;;;;;;5061983;28;20924;-77
2022/01/18 09:05:53;;;;;;;30.33;19.67;;;;;;;;;;5075568;28;20440;-79
2022/01/18 09:08:21;;;;;;;26.23;18.13;;;;;;;;;;5078270;28;20539;-76
2022/01/18 09:10:48;;;;;;;26.13;19.10;;;;;;;;;;5078464;28;20457;-77
2022/01/18 09:13:16;;;;;;;28.37;18.83;;;;;;;;;;5079107;28;20448;-77
2022/01/18 09:15:45;;;;;;;25.67;19.00;;;;;;;;;;5076375;28;20472;-77
2022/01/18 09:18:12;;;;;;;24.47;17.77;;;;;;;;;;5076747;28;20469;-77
2022/01/18 09:20:39;;;;;;;24.30;18.53;;;;;;;;;;5076047;28;20543;-79
2022/01/18 09:23:06;;;;;;;28.10;20.87;;;;;;;;;;5075338;28;20527;-78
2022/01/18 09:25:33;;;;;;;26.77;19.63;;;;;;;;;;5075736;28;20474;-78
2022/01/18 09:28:01;;;;;;;26.13;19.07;;;;;;;;;;5075765;28;20546;-77
2022/01/18 09:30:29;;;;;;;25.10;19.17;;;;;;;;;;5075631;28;20440;-78
2022/01/18 09:32:59;;;;;;;28.13;18.60;;;;;;;;;;5076348;28;20437;-78
2022/01/18 09:35:27;;;;;;;24.93;20.13;;;;;;;;;;5075790;28;20528;-77
2022/01/18 09:37:54;;;;;;;28.90;21.53;;;;;;;;;;5077037;28;20794;-78
2022/01/18 09:40:23;;;;;;;25.50;18.20;;;;;;;;;;5076315;28;20437;-78
2022/01/18 09:42:52;;;;;;;23.63;19.80;;;;;;;;;;5075702;28;20441;-79
2022/01/18 09:45:20;;;;;;;26.93;19.20;;;;;;;;;;5078869;28;20459;-77
2022/01/18 09:47:48;;;;;;;26.53;19.63;;;;;;;;;;5089912;28;20472;-77
2022/01/18 09:50:18;;;;;;;25.73;19.70;;;;;;;;;;5090535;28;20467;-77
2022/01/18 09:52:50;;;;;;;25.40;18.43;;;;;;;;;;5089163;28;20437;-77
2022/01/18 09:55:18;;;;;;;22.80;18.43;;;;;;;;;;5087805;28;20933;-77
2022/01/18 09:57:45;;;;;;;24.60;19.13;;;;;;;;;;5076136;28;20488;-78
2022/01/18 10:00:12;;;;;;;24.83;17.50;;;;;;;;;;5075671;28;20436;-79
2022/01/18 10:02:39;;;;;;;22.83;18.27;;;;;;;;;;5073332;28;20453;-77
2022/01/18 10:05:19;;;;;;;21.67;16.57;;;;;;;;;;5054934;28;20456;-78
2022/01/18 10:07:46;;;;;;;21.20;15.83;;;;;;;;;;5054652;28;20871;-77
2022/01/18 10:10:13;;;;;;;21.47;15.90;;;;;;;;;;5054744;28;20450;-79
2022/01/18 10:12:40;;;;;;;25.07;17.60;;;;;;;;;;5054504;28;20452;-78
2022/01/18 10:15:08;;;;;;;24.93;17.80;;;;;;;;;;5057600;28;20450;-79
2022/01/18 10:17:36;;;;;;;19.60;15.27;;;;;;;;;;5070592;28;20484;-77
2022/01/18 10:20:05;;;;;;;19.07;14.00;;;;;;;;;;5074084;28;20452;-77
2022/01/18 10:22:40;;;;;;;23.80;15.70;;;;;;;;;;5066080;28;20519;-79
2022/01/18 10:25:14;;;;;;;18.40;14.30;;;;;;;;;;5065556;28;20563;-77
2022/01/18 10:27:41;;;;;;;16.67;13.73;;;;;;;;;;5055562;28;20472;-77
2022/01/18 10:30:10;;;;;;;18.00;13.47;;;;;;;;;;5064333;28;20460;-77
2022/01/18 10:32:41;;;;;;;19.97;14.23;;;;;;;;;;5073079;28;21002;-77
2022/01/18 10:35:09;;;;;;;18.13;12.13;;;;;;;;;;5074128;28;20445;-78
2022/01/18 10:37:41;;;;;;;15.67;12.53;;;;;;;;;;5074172;28;20481;-77
2022/01/18 10:40:10;;;;;;;17.03;11.80;;;;;;;;;;5074112;28;20532;-78
2022/01/18 10:42:41;;;;;;;16.40;11.53;;;;;;;;;;5079698;28;20448;-77
2022/01/18 10:45:12;;;;;;;18.90;13.27;;;;;;;;;;5082344;28;20507;-77
2022/01/18 10:47:40;;;;;;;15.90;12.57;;;;;;;;;;5083700;28;20457;-78
2022/01/18 10:50:08;;;;;;;21.70;13.30;;;;;;;;;;5075637;28;20548;-77
2022/01/18 10:52:35;;;;;;;19.37;13.53;;;;;;;;;;5073948;28;20453;-78
2022/01/18 10:55:04;;;;;;;18.97;14.97;;;;;;;;;;5074564;28;20445;-79
2022/01/18 10:57:32;;;;;;;21.20;15.03;;;;;;;;;;5074550;28;20481;-78
2022/01/18 11:00:00;;;;;;;20.37;14.50;;;;;;;;;;5072510;28;20502;-77
2022/01/18 11:02:27;;;;;;;19.43;13.70;;;;;;;;;;5073087;28;20445;-78
2022/01/18 11:04:55;;;;;;;22.43;14.60;;;;;;;;;;5056809;28;20455;-79
2022/01/18 11:07:22;;;;;;;21.67;15.00;;;;;;;;;;5068934;28;20480;-77
2022/01/18 11:09:50;;;;;;;20.43;13.93;;;;;;;;;;5072291;28;20600;-78
2022/01/18 11:12:23;;;;;;;19.00;14.23;;;;;;;;;;5063840;28;20456;-78
2022/01/18 11:15:00;;;;;;;19.30;13.90;;;;;;;;;;5073464;28;20479;-77
2022/01/18 11:17:30;;;;;;;17.40;13.40;;;;;;;;;;5073452;28;20570;-78
2022/01/18 11:19:57;;;;;;;19.10;14.53;;;;;;;;;;5066300;28;20918;-79
2022/01/18 11:22:25;;;;;;;18.33;14.57;;;;;;;;;;5068992;28;20511;-77
2022/01/18 11:24:52;;;;;;;14.60;11.87;;;;;;;;;;5067003;28;20448;-79
2022/01/18 11:27:21;;;;;;;17.57;12.40;;;;;;;;;;5068572;28;20465;-76
2022/01/18 11:29:48;;;;;;;14.90;11.03;;;;;;;;;;5067089;28;20448;-79
2022/01/18 11:32:16;;;;;;;12.40;10.80;;;;;;;;;;5075549;28;20947;-78
2022/01/18 11:34:50;;;;;;;15.10;9.20;;;;;;;;;;5076269;28;20456;-77
2022/01/18 11:37:18;;;;;;;13.67;12.03;;;;;;;;;;5075381;28;20488;-77
2022/01/18 11:39:46;;;;;;;16.60;12.90;;;;;;;;;;5075319;28;20445;-79
2022/01/18 11:42:14;;;;;;;15.53;11.60;;;;;;;;;;5073425;28;20506;-77
2022/01/18 11:44:42;;;;;;;13.50;11.40;;;;;;;;;;5072791;28;20457;-79
2022/01/18 11:47:09;;;;;;;14.13;11.40;;;;;;;;;;5073025;28;20700;-78
2022/01/18 11:49:37;;;;;;;14.03;10.90;;;;;;;;;;5073280;28;20449;-77
2022/01/18 11:52:06;;;;;;;13.47;10.80;;;;;;;;;;5073926;28;20484;-78
2022/01/18 11:54:40;;;;;;;14.80;11.83;;;;;;;;;;5072819;28;20532;-78
2022/01/18 11:57:22;;;;;;;14.73;10.70;;;;;;;;;;5072665;28;20494;-79
2022/01/18 11:59:52;;;;;;;15.60;11.43;;;;;;;;;;5072793;28;20471;-77
2022/01/18 12:02:28;;;;;;;13.60;11.50;;;;;;;;;;5073207;28;20841;-78
2022/01/18 12:05:13;;;;;;;15.93;11.40;;;;;;;;;;5053848;28;20442;-78
2022/01/18 12:07:51;;;;;;;14.20;11.87;;;;;;;;;;5052948;28;20992;-78
2022/01/18 12:10:43;;;;;;;17.57;10.30;;;;;;;;;;5052576;28;20473;-77
2022/01/18 12:13:13;;;;;;;14.90;10.00;;;;;;;;;;5050033;28;20800;-79
2022/01/18 12:15:51;;;;;;;11.67;9.80;;;;;;;;;;5054696;28;20462;-78
2022/01/18 12:18:20;;;;;;;15.67;10.83;;;;;;;;;;5053819;28;20988;-79
2022/01/18 12:20:49;;;;;;;13.30;9.90;;;;;;;;;;5059323;28;20449;-78
2022/01/18 12:23:17;;;;;;;13.70;9.53;;;;;;;;;;5058168;28;20435;-79
2022/01/18 12:25:55;;;;;;;11.70;8.97;;;;;;;;;;5053815;28;20446;-79
2022/01/18 12:29:19;;;;;;;11.10;8.90;;;;;;;;;;5056111;28;20838;-80
2022/01/18 12:32:17;;;;;;;11.37;10.13;;;;;;;;;;4996961;28;20440;-79
2022/01/18 12:34:47;;;;;;;8.40;7.37;;;;;;;;;;5056030;28;20472;-80
2022/01/18 12:37:34;;;;;;;8.07;7.20;;;;;;;;;;5054350;28;20485;-79
2022/01/18 12:40:07;;;;;;;10.40;7.80;;;;;;;;;;5053011;28;20925;-78
2022/01/18 12:45:19;;;;;;;10.97;6.70;;;;;;;;;;5031081;28;20886;-78
2022/01/18 12:47:48;;;;;;;8.57;6.87;;;;;;;;;;5054194;28;20988;-78
2022/01/18 12:50:16;;;;;;;7.93;7.00;;;;;;;;;;5054166;28;20446;-79
2022/01/18 12:52:47;;;;;;;9.40;6.50;;;;;;;;;;5053515;28;20905;-80
2022/01/18 12:55:25;;;;;;;7.70;6.20;;;;;;;;;;5051876;28;20442;-78
2022/01/18 12:57:58;;;;;;;9.27;7.40;;;;;;;;;;5051713;28;20543;-79
2022/01/18 13:00:25;;;;;;;6.17;5.30;;;;;;;;;;5051985;28;20434;-79
2022/01/18 13:02:53;;;;;;;4.87;4.40;;;;;;;;;;5051177;28;20434;-77
2022/01/18 13:05:20;;;;;;;6.53;5.57;;;;;;;;;;5051788;28;20445;-77
2022/01/18 13:07:51;;;;;;;7.47;5.23;;;;;;;;;;5051243;28;20473;-78
2022/01/18 13:10:18;;;;;;;6.13;4.70;;;;;;;;;;5050603;28;20453;-79
2022/01/18 13:12:46;;;;;;;6.30;4.80;;;;;;;;;;5051776;28;20499;-78
2022/01/18 13:15:23;;;;;;;6.73;5.20;;;;;;;;;;5052676;28;20461;-80
2022/01/18 13:23:29;;;;;;;6.90;5.40;;;;;;;;;;5050588;28;20885;-78
2022/01/18 13:26:01;;;;;;;6.43;5.30;;;;;;;;;;5051296;28;20449;-79
2022/01/18 13:28:33;;;;;;;6.30;5.10;;;;;;;;;;5050315;28;20454;-79
2022/01/18 13:31:14;;;;;;;6.27;4.60;;;;;;;;;;5051128;28;20806;-77
2022/01/18 13:33:51;;;;;;;4.73;4.20;;;;;;;;;;5050583;28;20461;-78
2022/01/18 13:36:21;;;;;;;5.40;4.10;;;;;;;;;;5050845;28;20450;-78
2022/01/18 13:38:49;;;;;;;6.10;4.10;;;;;;;;;;5050469;28;21008;-78
2022/01/18 13:41:16;;;;;;;5.93;4.37;;;;;;;;;;5050572;28;20450;-78
2022/01/18 13:43:43;;;;;;;5.40;4.90;;;;;;;;;;5050619;28;20507;-77
2022/01/18 13:46:10;;;;;;;4.70;4.10;;;;;;;;;;5050468;28;20813;-78
2022/01/18 13:48:38;;;;;;;4.73;3.90;;;;;;;;;;5049959;28;20462;-80
2022/01/18 13:51:14;;;;;;;4.77;3.80;;;;;;;;;;5052395;28;20540;-79
2022/01/18 13:53:43;;;;;;;4.87;3.20;;;;;;;;;;5054283;28;20964;-79
2022/01/18 13:56:11;;;;;;;4.97;3.03;;;;;;;;;;5054621;28;20445;-80
2022/01/18 13:58:39;;;;;;;10.27;3.60;;;;;;;;;;5053865;28;20493;-78
2022/01/18 14:01:10;;;;;;;3.30;3.00;;;;;;;;;;5055131;28;20442;-78
2022/01/18 14:03:38;;;;;;;4.30;3.33;;;;;;;;;;5054684;28;20446;-79
2022/01/18 14:06:07;;;;;;;4.83;3.50;;;;;;;;;;5054572;28;20457;-78
2022/01/18 14:08:34;;;;;;;5.20;3.77;;;;;;;;;;5054050;28;20492;-80
2022/01/18 14:11:07;;;;;;;5.63;3.57;;;;;;;;;;5053754;28;20515;-79
2022/01/18 14:13:36;;;;;;;5.10;3.47;;;;;;;;;;5054827;28;20537;-79
2022/01/18 14:16:04;;;;;;;4.27;3.67;;;;;;;;;;5053733;28;20597;-80
2022/01/18 14:18:31;;;;;;;4.20;3.57;;;;;;;;;;5055168;28;20481;-79
2022/01/18 14:20:58;;;;;;;4.17;3.77;;;;;;;;;;5055039;28;20434;-78
2022/01/18 14:23:25;;;;;;;3.60;3.27;;;;;;;;;;5055338;28;20454;-80
2022/01/18 14:25:52;;;;;;;4.73;3.90;;;;;;;;;;5053424;28;20445;-79
2022/01/18 14:28:20;;;;;;;5.63;3.63;;;;;;;;;;5054365;28;20468;-78
2022/01/18 14:30:48;;;;;;;6.23;2.83;;;;;;;;;;5053269;28;20873;-79
2022/01/18 14:33:15;;;;;;;3.50;3.20;;;;;;;;;;5054198;28;20454;-79
2022/01/18 14:35:43;;;;;;;6.63;3.97;;;;;;;;;;5053222;28;20453;-79
2022/01/18 14:38:11;;;;;;;5.90;3.83;;;;;;;;;;5054437;28;20494;-79
2022/01/18 14:40:39;;;;;;;5.80;2.87;;;;;;;;;;5053319;28;20469;-78
2022/01/18 14:43:12;;;;;;;3.10;2.70;;;;;;;;;;5053537;28;20503;-80
2022/01/18 14:45:52;;;;;;;3.10;2.60;;;;;;;;;;5055056;28;20460;-79
2022/01/18 14:48:19;;;;;;;4.30;2.90;;;;;;;;;;5053888;28;20571;-78
2022/01/18 14:50:47;;;;;;;7.20;3.20;;;;;;;;;;5053724;28;20441;-78
2022/01/18 14:53:14;;;;;;;5.93;2.83;;;;;;;;;;5054177;28;20434;-78
2022/01/18 14:55:42;;;;;;;4.53;3.47;;;;;;;;;;5053968;28;20450;-79
2022/01/18 14:58:09;;;;;;;4.07;3.67;;;;;;;;;;5053384;28;20505;-78
2022/01/18 15:00:36;;;;;;;5.67;4.20;;;;;;;;;;5052981;28;20437;-78
2022/01/18 15:03:05;;;;;;;7.03;4.10;;;;;;;;;;5050921;28;20435;-78
2022/01/18 15:05:32;;;;;;;7.50;3.97;;;;;;;;;;5053176;28;20450;-79
2022/01/18 15:08:00;;;;;;;4.40;4.00;;;;;;;;;;5052381;28;20466;-79
2022/01/18 15:10:27;;;;;;;7.10;4.40;;;;;;;;;;5053299;28;20951;-77
2022/01/18 15:12:55;;;;;;;8.03;4.37;;;;;;;;;;5052857;28;20442;-79
2022/01/18 15:15:22;;;;;;;10.30;4.97;;;;;;;;;;5054576;28;20499;-78
2022/01/18 15:17:50;;;;;;;6.50;4.73;;;;;;;;;;5053899;28;20486;-79
2022/01/18 15:20:19;;;;;;;8.40;5.30;;;;;;;;;;5052371;28;20457;-78
2022/01/18 15:22:46;;;;;;;5.30;4.80;;;;;;;;;;5052091;28;20442;-78
2022/01/18 15:25:14;;;;;;;6.00;4.47;;;;;;;;;;5053346;28;20512;-78
2022/01/18 15:27:41;;;;;;;6.00;4.30;;;;;;;;;;5053738;28;20462;-77
2022/01/18 15:30:11;;;;;;;5.20;4.60;;;;;;;;;;5052239;28;20461;-78
2022/01/18 15:32:38;;;;;;;6.17;4.77;;;;;;;;;;5052675;28;20523;-80